Time;durP1;ratioP1;P1;durP2;ratioP2;P2;SDS_P1;SDS_P2;PMS_P1;PMS_P2;Temp;Humidity;BMP_temperature;BMP_pressure;BME280_temperature;BME280_humidity;BME280_pressure;Samples;Min_cycle;Max_cycle;Signal;HPM_P1;HPM_P2
2021/09/17 00:01:45;;;;;;;9.90;5.90;;;;;;;11.47;99.39;98031.50;4945256;29;20062;-58
2021/09/17 00:04:10;;;;;;;10.18;6.00;;;;;;;11.51;97.04;98025.25;4944291;29;20042;-59
2021/09/17 00:06:36;;;;;;;9.55;5.88;;;;;;;11.99;96.68;98033.59;4944849;29;20043;-60
2021/09/17 00:09:01;;;;;;;9.70;6.13;;;;;;;11.57;96.81;98032.81;4945724;29;20062;-60
2021/09/17 00:11:27;;;;;;;9.25;5.75;;;;;;;11.57;98.22;98031.03;4944582;28;20058;-59
2021/09/17 00:13:52;;;;;;;8.18;5.47;;;;;;;11.80;96.31;98025.69;4928649;29;20122;-59
2021/09/17 00:16:19;;;;;;;11.52;6.07;;;;;;;11.49;97.25;98027.09;4945220;28;20413;-61
2021/09/17 00:18:44;;;;;;;10.70;6.28;;;;;;;11.50;95.80;98019.16;4944738;29;20094;-60
2021/09/17 00:21:10;;;;;;;10.48;6.45;;;;;;;11.59;95.89;98017.91;4944488;28;20133;-60
2021/09/17 00:23:35;;;;;;;11.20;6.30;;;;;;;11.49;95.10;98027.94;4945540;29;20134;-59
2021/09/17 00:26:00;;;;;;;9.20;5.78;;;;;;;11.07;98.79;98025.44;4918124;29;20059;-59
2021/09/17 00:28:26;;;;;;;13.05;6.80;;;;;;;11.02;98.95;98027.38;4944981;29;20441;-59
2021/09/17 00:30:51;;;;;;;10.43;6.07;;;;;;;11.33;95.54;98021.69;4944426;28;20805;-60
2021/09/17 00:33:17;;;;;;;8.95;6.10;;;;;;;11.56;95.12;98023.25;4929499;29;20122;-61
2021/09/17 00:35:42;;;;;;;16.13;6.38;;;;;;;11.09;99.01;98034.03;4944471;29;20047;-60
2021/09/17 00:38:07;;;;;;;9.57;6.07;;;;;;;11.57;97.67;98032.81;4943624;29;20450;-59
2021/09/17 00:40:33;;;;;;;8.02;5.32;;;;;;;11.47;98.17;98039.34;4944061;28;20417;-61
2021/09/17 00:42:59;;;;;;;9.88;5.85;;;;;;;11.08;96.76;98032.31;4944823;29;20039;-60
2021/09/17 00:45:24;;;;;;;11.82;6.45;;;;;;;10.96;98.14;98028.50;4943396;28;20027;-59
2021/09/17 00:47:50;;;;;;;9.73;5.95;;;;;;;11.08;97.56;98027.09;4941750;29;20038;-60
2021/09/17 00:50:18;;;;;;;8.43;5.05;;;;;;;12.11;94.21;98023.41;4944047;28;20034;-59
2021/09/17 00:52:46;;;;;;;10.75;5.60;;;;;;;11.44;93.93;98029.06;4929229;29;20053;-59
2021/09/17 00:55:12;;;;;;;10.98;6.13;;;;;;;11.24;96.26;98017.69;4944251;29;20034;-61
2021/09/17 00:57:37;;;;;;;13.07;6.50;;;;;;;11.15;96.08;98018.09;4943745;29;20027;-61
2021/09/17 01:00:06;;;;;;;11.10;6.20;;;;;;;11.11;97.11;98017.38;4943676;28;20436;-60
2021/09/17 01:02:31;;;;;;;10.80;5.60;;;;;;;10.94;97.08;98018.09;4944122;29;20035;-60
2021/09/17 01:04:57;;;;;;;9.95;6.05;;;;;;;10.82;98.63;98023.84;4944484;29;20028;-58
2021/09/17 01:07:22;;;;;;;9.80;6.35;;;;;;;11.09;96.93;98018.38;4927633;29;20074;-60
2021/09/17 01:09:48;;;;;;;10.57;5.90;;;;;;;11.22;96.21;98009.09;4943358;28;20460;-60
2021/09/17 01:12:13;;;;;;;9.82;5.80;;;;;;;11.29;96.88;98010.53;4943834;29;20452;-59
2021/09/17 01:14:40;;;;;;;11.95;6.00;;;;;;;11.09;97.00;98011.38;4944459;29;20521;-60
2021/09/17 01:17:06;;;;;;;8.85;5.93;;;;;;;11.13;97.84;98014.72;4942523;29;20500;-59
2021/09/17 01:19:34;;;;;;;10.57;6.00;;;;;;;11.32;95.95;98009.53;4928473;28;20563;-60
2021/09/17 01:22:02;;;;;;;14.00;6.35;;;;;;;11.46;95.81;98011.56;4943707;29;20634;-60
2021/09/17 01:24:28;;;;;;;9.30;5.70;;;;;;;11.38;95.98;98012.72;4943953;29;20039;-60
2021/09/17 01:26:54;;;;;;;7.85;5.18;;;;;;;11.61;95.91;98008.25;4943332;29;20145;-60
2021/09/17 01:29:20;;;;;;;9.32;5.63;;;;;;;11.49;95.40;98006.19;4941929;29;20033;-59
2021/09/17 01:31:46;;;;;;;10.98;6.20;;;;;;;11.85;92.25;98008.03;4940971;29;20063;-59
2021/09/17 01:34:15;;;;;;;13.77;5.55;;;;;;;11.87;93.74;98008.81;4943271;29;20063;-60
2021/09/17 01:36:41;;;;;;;10.77;6.20;;;;;;;11.46;94.04;98006.31;4943002;29;20122;-59
2021/09/17 01:39:06;;;;;;;9.75;5.90;;;;;;;11.29;97.61;97999.25;4942898;28;20038;-59
2021/09/17 01:41:32;;;;;;;8.32;5.65;;;;;;;11.45;96.73;97997.66;4943393;28;20110;-60
2021/09/17 01:43:57;;;;;;;10.80;6.43;;;;;;;11.57;96.37;97991.84;4943712;29;20085;-60
2021/09/17 01:46:23;;;;;;;11.00;5.68;;;;;;;11.54;96.60;97988.53;4942573;29;20077;-59
2021/09/17 01:48:48;;;;;;;12.25;5.43;;;;;;;11.55;96.04;97985.00;4943413;29;20082;-60
2021/09/17 01:51:14;;;;;;;8.63;5.30;;;;;;;11.69;94.97;97985.25;4943083;28;20114;-58
2021/09/17 01:53:40;;;;;;;8.07;5.70;;;;;;;11.25;96.27;97982.00;4943925;29;20487;-58
2021/09/17 01:56:05;;;;;;;8.05;5.32;;;;;;;11.58;95.92;97985.72;4943113;29;20658;-58
2021/09/17 01:58:31;;;;;;;10.30;5.80;;;;;;;11.53;97.08;97981.63;4943199;28;20158;-61
2021/09/17 02:00:57;;;;;;;8.68;5.40;;;;;;;11.88;95.06;97987.84;4941856;28;20042;-60
2021/09/17 02:03:23;;;;;;;9.20;6.13;;;;;;;11.81;95.09;97990.81;4943044;29;20035;-60
2021/09/17 02:05:48;;;;;;;9.95;6.43;;;;;;;11.48;96.53;97984.44;4942400;29;21000;-59
2021/09/17 02:08:13;;;;;;;8.52;5.07;;;;;;;11.99;96.16;97984.75;4943427;29;20107;-60
2021/09/17 02:10:39;;;;;;;11.13;5.60;;;;;;;11.74;94.80;97985.88;4941719;28;20067;-60
2021/09/17 02:13:05;;;;;;;9.43;6.20;;;;;;;11.84;94.75;97990.69;4943128;29;20066;-60
2021/09/17 02:15:30;;;;;;;7.47;4.72;;;;;;;11.84;95.09;97985.47;4942764;29;20817;-59
2021/09/17 02:17:56;;;;;;;9.55;5.30;;;;;;;12.07;93.98;97990.47;4942304;29;20720;-60
2021/09/17 02:20:21;;;;;;;8.73;5.82;;;;;;;11.54;96.16;97988.53;4942540;28;20031;-59
2021/09/17 02:22:46;;;;;;;8.60;5.63;;;;;;;11.34;98.62;97992.91;4943049;29;20015;-59
2021/09/17 02:25:12;;;;;;;11.32;4.97;;;;;;;12.00;94.84;97975.16;4927119;29;20564;-60
2021/09/17 02:27:38;;;;;;;15.05;5.47;;;;;;;12.10;94.74;97977.25;4944240;29;20122;-61
2021/09/17 02:30:06;;;;;;;11.55;6.13;;;;;;;12.04;94.40;97976.69;4926265;29;20110;-61
2021/09/17 02:32:32;;;;;;;10.00;5.70;;;;;;;11.73;95.66;97972.88;4925614;29;20582;-59
2021/09/17 02:34:57;;;;;;;10.50;6.00;;;;;;;11.83;95.06;97973.31;4943892;29;20673;-59
2021/09/17 02:37:22;;;;;;;10.82;6.95;;;;;;;11.62;96.62;97965.53;4943821;29;20206;-59
2021/09/17 02:39:48;;;;;;;11.27;6.13;;;;;;;12.12;94.23;97967.56;4943930;28;20241;-59
2021/09/17 02:42:13;;;;;;;9.13;5.75;;;;;;;11.94;95.39;97960.59;4943729;29;20074;-61
2021/09/17 02:44:39;;;;;;;14.13;6.88;;;;;;;11.92;96.23;97971.13;4943003;29;20379;-59
2021/09/17 02:47:04;;;;;;;14.43;6.57;;;;;;;11.88;95.49;97960.88;4941432;29;20038;-61
2021/09/17 02:49:33;;;;;;;10.77;6.45;;;;;;;12.12;95.70;97970.19;4943549;28;20019;-59
2021/09/17 02:52:00;;;;;;;9.43;6.20;;;;;;;12.08;95.72;97966.03;4943747;29;20075;-60
2021/09/17 02:54:25;;;;;;;11.57;6.20;;;;;;;12.06;95.62;97960.03;4944124;29;20037;-60
2021/09/17 02:56:50;;;;;;;12.75;6.10;;;;;;;12.51;93.63;97953.47;4916683;29;20043;-60
2021/09/17 02:59:16;;;;;;;11.10;6.43;;;;;;;12.60;94.75;97953.94;4943620;28;20035;-59
2021/09/17 03:01:41;;;;;;;11.95;6.47;;;;;;;12.46;93.76;97952.88;4943261;29;20050;-60
2021/09/17 03:04:07;;;;;;;9.15;5.50;;;;;;;13.03;93.84;97957.00;4942846;29;20023;-59
2021/09/17 03:06:32;;;;;;;12.88;6.53;;;;;;;12.83;93.39;97955.38;4943177;29;20047;-61
2021/09/17 03:08:57;;;;;;;11.25;6.55;;;;;;;12.42;94.20;97948.69;4925344;29;20050;-59
2021/09/17 03:11:23;;;;;;;16.67;7.05;;;;;;;11.70;97.39;97947.72;4943045;28;20078;-60
2021/09/17 03:13:48;;;;;;;9.48;6.03;;;;;;;12.29;95.96;97947.59;4943738;29;20079;-60
2021/09/17 03:16:13;;;;;;;12.88;6.25;;;;;;;12.45;95.82;97940.69;4943365;29;20043;-59
2021/09/17 03:18:39;;;;;;;10.48;6.30;;;;;;;12.18;96.70;97952.50;4943124;29;20066;-60
2021/09/17 03:21:04;;;;;;;8.18;5.60;;;;;;;12.72;95.16;97948.09;4941249;28;20039;-60
2021/09/17 03:23:30;;;;;;;10.23;6.80;;;;;;;12.24;95.26;97946.97;4941732;29;20767;-61
2021/09/17 03:25:56;;;;;;;9.32;5.72;;;;;;;12.50;96.26;97949.19;4941622;28;20045;-59
2021/09/17 03:28:22;;;;;;;8.55;6.00;;;;;;;12.40;95.09;97947.94;4942059;29;20053;-59
2021/09/17 03:30:47;;;;;;;9.50;6.10;;;;;;;12.67;93.41;97955.34;4941718;28;20051;-61
2021/09/17 03:33:14;;;;;;;11.05;6.47;;;;;;;12.37;94.44;97948.09;4942143;28;20037;-60
2021/09/17 03:35:39;;;;;;;10.93;6.70;;;;;;;12.33;94.88;97957.00;4940839;29;20904;-59
2021/09/17 03:38:06;;;;;;;12.68;6.53;;;;;;;12.34;94.87;97949.06;4941886;29;20035;-59
2021/09/17 03:40:34;;;;;;;11.70;6.40;;;;;;;12.61;94.26;97953.00;4940797;28;20066;-59
2021/09/17 03:42:59;;;;;;;10.07;6.10;;;;;;;12.45;94.79;97951.16;4940392;29;20042;-60
2021/09/17 03:45:25;;;;;;;7.57;5.20;;;;;;;12.72;93.70;97953.34;4923206;28;20113;-60
2021/09/17 03:47:50;;;;;;;8.98;5.30;;;;;;;12.85;91.92;97948.34;4941650;29;20027;-60
2021/09/17 03:50:15;;;;;;;8.90;6.20;;;;;;;12.58;93.63;97947.94;4940891;28;20053;-59
2021/09/17 03:52:41;;;;;;;8.38;5.80;;;;;;;12.72;93.10;97950.72;4941856;29;20035;-61
2021/09/17 03:55:07;;;;;;;11.05;5.40;;;;;;;12.80;93.25;97945.94;4941521;29;20030;-60
2021/09/17 03:57:33;;;;;;;10.27;6.38;;;;;;;12.61;93.35;97950.38;4941192;29;20035;-59
2021/09/17 03:59:58;;;;;;;7.70;5.38;;;;;;;13.13;91.35;97950.38;4941328;28;20037;-59
2021/09/17 04:02:23;;;;;;;9.02;5.63;;;;;;;12.88;91.12;97943.78;4925404;29;20047;-61
2021/09/17 04:04:49;;;;;;;11.10;6.15;;;;;;;12.48;94.70;97955.38;4941332;29;20039;-60
2021/09/17 04:07:14;;;;;;;10.77;6.75;;;;;;;12.46;94.59;97952.00;4941539;29;20039;-60
2021/09/17 04:09:39;;;;;;;16.17;6.38;;;;;;;12.47;94.07;97951.09;4941605;28;20118;-58
2021/09/17 04:12:05;;;;;;;11.73;6.20;;;;;;;12.46;95.13;97952.00;4941425;29;20064;-60
2021/09/17 04:14:30;;;;;;;7.95;5.07;;;;;;;12.78;94.08;97958.25;4941295;29;20669;-60
2021/09/17 04:16:55;;;;;;;9.18;5.80;;;;;;;12.58;95.31;97956.63;4941322;29;20039;-60
2021/09/17 04:19:21;;;;;;;10.13;6.45;;;;;;;12.59;94.39;97952.25;4941679;29;20039;-59
2021/09/17 04:21:46;;;;;;;9.70;4.50;;;;;;;13.24;94.27;97955.88;4942684;28;20042;-58
2021/09/17 04:24:12;;;;;;;10.70;6.05;;;;;;;12.43;94.22;97952.19;4942187;29;20027;-59
2021/09/17 04:26:37;;;;;;;9.68;6.15;;;;;;;12.36;96.19;97951.63;4944629;29;20051;-59
2021/09/17 04:29:03;;;;;;;8.20;4.85;;;;;;;13.10;92.08;97958.38;4945064;28;20121;-61
2021/09/17 04:31:29;;;;;;;9.25;5.25;;;;;;;12.82;93.40;97956.34;4944463;28;20039;-60
2021/09/17 04:33:54;;;;;;;7.95;4.70;;;;;;;12.97;93.56;97962.56;4929604;29;20034;-60
2021/09/17 04:36:19;;;;;;;9.55;5.18;;;;;;;13.37;90.73;97961.34;4944256;29;20035;-60
2021/09/17 04:38:45;;;;;;;7.90;4.35;;;;;;;13.40;91.52;97966.44;4944393;29;20035;-60
2021/09/17 04:41:10;;;;;;;9.73;5.43;;;;;;;13.24;91.56;97963.75;4944332;28;20038;-61
2021/09/17 04:43:35;;;;;;;9.80;5.05;;;;;;;13.10;90.94;97958.38;4928176;29;20030;-59
2021/09/17 04:46:02;;;;;;;8.93;5.43;;;;;;;12.99;93.51;97961.53;4944281;29;20047;-61
2021/09/17 04:48:27;;;;;;;8.90;5.57;;;;;;;12.62;93.45;97958.16;4944737;29;20122;-60
2021/09/17 04:50:52;;;;;;;7.75;5.38;;;;;;;12.37;94.27;97961.19;4944370;28;20066;-59
2021/09/17 04:53:18;;;;;;;8.52;5.45;;;;;;;12.06;96.17;97965.25;4944116;29;20054;-59
2021/09/17 04:55:43;;;;;;;10.00;5.55;;;;;;;11.99;96.34;97963.00;4943653;29;20050;-59
2021/09/17 04:58:09;;;;;;;11.50;5.70;;;;;;;11.87;96.55;97959.16;4944217;29;20106;-58
2021/09/17 05:00:36;;;;;;;10.40;5.82;;;;;;;11.87;96.72;97961.78;4944146;28;20054;-59
2021/09/17 05:03:02;;;;;;;11.75;6.00;;;;;;;11.75;96.25;97961.44;4943849;29;20054;-60
2021/09/17 05:05:28;;;;;;;14.50;6.15;;;;;;;11.52;97.71;97966.84;4942504;29;20126;-59
2021/09/17 05:07:53;;;;;;;12.63;6.55;;;;;;;11.53;98.34;97969.41;4944536;29;20046;-61
2021/09/17 05:10:19;;;;;;;10.30;6.60;;;;;;;11.46;98.90;97972.38;4943594;28;20031;-60
2021/09/17 05:12:45;;;;;;;12.98;6.38;;;;;;;11.52;98.77;97985.16;4943991;29;20035;-60
2021/09/17 05:15:11;;;;;;;10.35;6.03;;;;;;;11.56;98.80;97973.63;4943864;29;20024;-61
2021/09/17 05:17:36;;;;;;;11.52;6.65;;;;;;;11.62;98.55;97978.59;4944369;29;20024;-59
2021/09/17 05:20:03;;;;;;;13.55;6.55;;;;;;;11.59;98.07;97976.13;4943932;28;20074;-59
2021/09/17 05:22:29;;;;;;;10.00;6.50;;;;;;;11.77;98.34;97969.22;4943369;29;20069;-61
2021/09/17 05:24:55;;;;;;;11.68;5.35;;;;;;;12.64;94.72;97973.81;4943027;29;20038;-61
2021/09/17 05:27:20;;;;;;;12.52;6.70;;;;;;;12.46;94.09;97976.41;4943846;28;20035;-60
2021/09/17 05:29:45;;;;;;;11.68;6.25;;;;;;;12.32;95.59;97986.69;4943766;28;20342;-60
2021/09/17 05:32:11;;;;;;;10.00;6.35;;;;;;;12.38;94.85;97986.38;4943173;28;20047;-60
2021/09/17 05:34:37;;;;;;;13.15;6.65;;;;;;;12.43;95.50;97984.41;4943238;29;20031;-60
2021/09/17 05:37:04;;;;;;;9.90;6.20;;;;;;;12.60;95.34;97986.19;4942275;29;20098;-60
2021/09/17 05:39:29;;;;;;;8.48;5.85;;;;;;;12.71;94.76;97988.28;4943182;28;20788;-60
2021/09/17 05:41:54;;;;;;;10.30;6.03;;;;;;;12.49;97.08;97978.88;4942003;29;20044;-61
2021/09/17 05:44:20;;;;;;;9.32;6.22;;;;;;;13.09;94.31;97982.88;4944099;29;20054;-60
2021/09/17 05:46:45;;;;;;;6.25;4.50;;;;;;;13.41;91.87;97988.22;4943339;29;20131;-61
2021/09/17 05:49:12;;;;;;;9.23;5.97;;;;;;;13.11;95.80;97987.09;4939980;29;20059;-59
2021/09/17 05:51:38;;;;;;;8.50;5.45;;;;;;;13.15;93.81;97993.03;4928354;29;20487;-62
2021/09/17 05:54:03;;;;;;;11.48;5.93;;;;;;;13.04;93.63;97982.25;4943412;29;20027;-60
2021/09/17 05:56:28;;;;;;;7.97;5.40;;;;;;;13.65;93.89;97993.94;4943028;29;20142;-60
2021/09/17 05:58:54;;;;;;;9.25;5.60;;;;;;;13.61;91.04;97990.66;4942697;29;20752;-59
2021/09/17 06:01:19;;;;;;;7.88;5.13;;;;;;;13.53;91.57;97995.47;4942581;28;20047;-61
2021/09/17 06:03:44;;;;;;;8.18;4.93;;;;;;;13.40;94.02;97991.78;4943333;29;20019;-61
2021/09/17 06:06:10;;;;;;;8.20;5.40;;;;;;;13.49;93.50;97993.91;4942915;29;20824;-59
2021/09/17 06:08:36;;;;;;;9.75;5.55;;;;;;;13.04;94.44;97996.19;4942588;29;20034;-61
2021/09/17 06:11:03;;;;;;;11.35;5.55;;;;;;;13.01;95.63;98000.75;4943051;28;20121;-61
2021/09/17 06:13:28;;;;;;;13.02;5.78;;;;;;;13.30;94.41;98000.13;4942622;29;20031;-60
2021/09/17 06:15:53;;;;;;;10.45;6.35;;;;;;;13.07;95.11;98000.44;4942950;29;20039;-61
2021/09/17 06:18:19;;;;;;;9.40;6.00;;;;;;;12.96;96.65;98007.97;4942941;29;20031;-59
2021/09/17 06:20:45;;;;;;;11.50;5.97;;;;;;;13.16;95.67;98005.22;4942937;28;20038;-60
2021/09/17 06:23:11;;;;;;;10.10;5.00;;;;;;;13.65;93.38;98005.25;4942407;28;20710;-60
2021/09/17 06:25:36;;;;;;;13.63;5.80;;;;;;;13.56;92.74;97997.91;4942601;29;20110;-60
2021/09/17 06:28:02;;;;;;;10.40;5.97;;;;;;;14.09;91.97;98001.16;4925456;29;20089;-60
2021/09/17 06:30:27;;;;;;;12.05;6.10;;;;;;;13.96;91.53;97994.91;4941920;28;20027;-61
2021/09/17 06:32:53;;;;;;;11.55;5.75;;;;;;;13.97;92.48;97997.47;4943190;29;20024;-61
2021/09/17 06:35:18;;;;;;;8.65;4.88;;;;;;;14.55;90.84;97988.06;4941933;28;20055;-62
2021/09/17 06:37:52;;;;;;;12.57;6.68;;;;;;;14.48;89.87;97997.22;4942070;29;20030;-61
2021/09/17 06:40:19;;;;;;;10.68;6.63;;;;;;;14.14;91.79;97998.31;4941210;28;20035;-59
2021/09/17 06:42:45;;;;;;;11.75;6.70;;;;;;;14.36;90.73;97988.28;4942365;29;20489;-61
2021/09/17 06:45:11;;;;;;;10.80;5.88;;;;;;;14.11;92.35;98001.09;4940845;28;20031;-60
2021/09/17 06:47:47;;;;;;;9.07;6.25;;;;;;;14.24;92.35;97989.84;4942704;29;20031;-62
2021/09/17 06:50:14;;;;;;;9.25;5.15;;;;;;;14.46;92.75;97994.72;4941673;28;20038;-61
2021/09/17 06:52:40;;;;;;;10.23;5.65;;;;;;;14.44;91.76;97996.56;4942540;29;20034;-60
2021/09/17 06:55:07;;;;;;;10.27;6.68;;;;;;;14.34;92.96;97995.41;4942852;29;20034;-62
2021/09/17 06:57:45;;;;;;;9.73;5.88;;;;;;;14.23;93.28;97996.00;4942207;29;20432;-61
2021/09/17 07:00:11;;;;;;;9.27;5.50;;;;;;;14.38;91.93;97989.03;4941932;28;20037;-62
2021/09/17 07:02:36;;;;;;;9.85;6.35;;;;;;;14.36;91.49;97996.16;4942146;29;20023;-61
2021/09/17 07:05:02;;;;;;;9.95;6.20;;;;;;;14.73;91.15;97999.34;4925304;29;20186;-60
2021/09/17 07:07:27;;;;;;;11.00;6.68;;;;;;;14.68;90.32;97993.50;4926443;29;20043;-60
2021/09/17 07:09:53;;;;;;;14.20;5.95;;;;;;;15.06;89.13;97998.31;4942024;28;20972;-61
2021/09/17 07:12:18;;;;;;;10.45;7.07;;;;;;;14.84;89.36;98004.81;4942249;29;20455;-60
2021/09/17 07:14:43;;;;;;;11.13;6.35;;;;;;;14.98;89.43;98005.78;4941848;29;20407;-59
2021/09/17 07:17:08;;;;;;;11.90;7.68;;;;;;;14.96;89.87;98002.41;4941927;29;20702;-60
2021/09/17 07:19:34;;;;;;;13.07;8.13;;;;;;;15.20;88.86;98002.72;4942167;28;20041;-60
2021/09/17 07:21:59;;;;;;;15.57;9.38;;;;;;;15.26;88.54;98001.53;4941894;29;20043;-60
2021/09/17 07:24:24;;;;;;;14.13;9.32;;;;;;;15.55;86.64;98005.88;4942437;29;20106;-61
2021/09/17 07:26:51;;;;;;;18.48;10.90;;;;;;;15.40;86.47;98006.78;4942183;29;21010;-60
2021/09/17 07:29:16;;;;;;;21.75;12.73;;;;;;;15.02;89.02;98002.88;4942080;29;20066;-60
2021/09/17 07:31:43;;;;;;;16.45;9.38;;;;;;;16.11;85.06;98002.44;4941827;28;20166;-59
2021/09/17 07:34:09;;;;;;;19.70;9.80;;;;;;;16.05;85.83;98000.22;4941520;29;20038;-61
2021/09/17 07:36:34;;;;;;;25.02;11.50;;;;;;;15.30;88.55;98005.66;4941686;29;20047;-60
2021/09/17 07:38:59;;;;;;;14.27;8.35;;;;;;;16.23;84.52;98001.69;4941948;29;20039;-61
2021/09/17 07:41:25;;;;;;;19.08;11.80;;;;;;;15.86;85.51;98009.28;4941749;28;20039;-61
2021/09/17 07:43:50;;;;;;;18.42;11.68;;;;;;;15.51;86.03;98014.00;4941892;29;20580;-61
2021/09/17 07:46:15;;;;;;;24.60;12.60;;;;;;;15.60;85.13;98011.69;4941398;29;20099;-60
2021/09/17 07:48:41;;;;;;;26.65;12.55;;;;;;;15.29;87.09;98010.06;4940732;29;20479;-61
2021/09/17 07:51:06;;;;;;;17.60;10.80;;;;;;;16.00;84.28;98011.03;4941445;28;20568;-61
2021/09/17 07:53:31;;;;;;;21.15;11.65;;;;;;;15.95;83.40;98011.31;4942256;29;20046;-61
2021/09/17 07:55:57;;;;;;;18.48;11.30;;;;;;;16.09;84.88;98014.84;4942842;28;20432;-61
2021/09/17 07:58:22;;;;;;;23.50;11.98;;;;;;;15.84;85.02;98016.38;4945596;29;20122;-60
2021/09/17 08:00:48;;;;;;;17.60;11.02;;;;;;;15.93;84.88;98018.44;4928418;29;20118;-61
2021/09/17 08:03:13;;;;;;;23.85;11.93;;;;;;;15.52;86.26;98011.28;4945508;29;20051;-61
2021/09/17 08:05:38;;;;;;;22.88;12.38;;;;;;;15.22;87.90;98014.84;4944905;29;20043;-59
2021/09/17 08:08:04;;;;;;;19.92;11.55;;;;;;;15.67;86.40;98020.03;4942223;28;20456;-62
2021/09/17 08:10:29;;;;;;;20.33;12.10;;;;;;;15.47;86.37;98017.78;4943285;28;20651;-60
2021/09/17 08:12:55;;;;;;;18.38;11.27;;;;;;;15.84;85.49;98016.38;4945458;29;20046;-60
2021/09/17 08:15:20;;;;;;;18.23;10.63;;;;;;;16.70;83.00;98021.41;4945076;28;20019;-59
2021/09/17 08:17:45;;;;;;;17.15;10.50;;;;;;;16.50;81.87;98014.81;4945347;29;20031;-59
2021/09/17 08:20:11;;;;;;;17.58;10.45;;;;;;;16.49;83.36;98017.56;4943501;28;20059;-61
2021/09/17 08:22:36;;;;;;;17.92;10.90;;;;;;;16.32;82.89;98016.88;4945157;29;20131;-60
2021/09/17 08:25:03;;;;;;;18.90;10.52;;;;;;;16.41;83.90;98025.13;4944970;29;20560;-60
2021/09/17 08:27:28;;;;;;;18.92;11.52;;;;;;;16.57;83.05;98015.28;4944980;29;20043;-60
2021/09/17 08:29:54;;;;;;;18.45;10.98;;;;;;;16.51;83.36;98011.25;4944918;28;20106;-61
2021/09/17 08:32:19;;;;;;;16.10;9.75;;;;;;;16.58;82.55;98014.34;4944799;29;20039;-61
2021/09/17 08:34:44;;;;;;;16.35;10.70;;;;;;;16.33;82.60;98013.28;4944574;29;20023;-60
2021/09/17 08:37:10;;;;;;;18.63;11.27;;;;;;;16.67;81.41;98010.25;4944728;29;20035;-62
2021/09/17 08:39:37;;;;;;;16.27;8.90;;;;;;;17.48;79.49;98010.09;4944161;28;20030;-61
2021/09/17 08:42:06;;;;;;;19.92;10.50;;;;;;;17.49;79.99;98010.94;4944101;29;20086;-59
2021/09/17 08:44:32;;;;;;;14.88;8.23;;;;;;;17.80;77.66;98009.63;4944188;29;20030;-60
2021/09/17 08:46:58;;;;;;;15.25;9.73;;;;;;;16.97;78.74;98015.31;4943839;29;20076;-60
2021/09/17 08:49:23;;;;;;;18.83;10.13;;;;;;;17.24;79.63;98009.13;4943983;28;20031;-62
2021/09/17 08:51:50;;;;;;;13.45;8.20;;;;;;;19.48;70.51;98007.06;4928448;29;20666;-61
2021/09/17 08:54:15;;;;;;;18.00;10.07;;;;;;;18.64;73.54;98013.31;4944358;29;20042;-59
2021/09/17 08:56:40;;;;;;;14.32;10.25;;;;;;;18.08;74.56;98005.06;4943941;29;20039;-61
2021/09/17 08:59:06;;;;;;;15.85;9.80;;;;;;;18.46;74.47;98015.50;4944063;29;20034;-60
2021/09/17 09:01:36;;;;;;;14.80;9.45;;;;;;;20.34;69.47;98010.91;4943965;28;20067;-61
2021/09/17 09:04:10;;;;;;;14.05;8.05;;;;;;;20.72;68.52;97999.84;4941913;29;20035;-59
2021/09/17 09:06:47;;;;;;;15.52;8.73;;;;;;;21.41;65.58;97992.34;4943141;28;20130;-62
2021/09/17 09:09:19;;;;;;;12.80;8.20;;;;;;;21.65;62.23;98000.91;4927973;29;20172;-60
2021/09/17 09:11:47;;;;;;;15.27;9.50;;;;;;;20.41;65.62;98004.13;4942927;28;20043;-60
2021/09/17 09:14:13;;;;;;;12.88;9.07;;;;;;;19.49;66.17;98000.84;4944200;29;20601;-61
2021/09/17 09:16:41;;;;;;;11.13;8.15;;;;;;;21.05;62.84;98005.13;4943450;29;20043;-62
2021/09/17 09:19:28;;;;;;;11.52;6.70;;;;;;;21.77;62.15;97995.50;4943629;29;20439;-61
2021/09/17 09:22:14;;;;;;;12.55;7.53;;;;;;;20.88;64.88;97996.78;4942996;29;20126;-62
2021/09/17 09:24:43;;;;;;;11.80;7.75;;;;;;;20.45;65.44;97997.63;4943110;29;20019;-60
2021/09/17 09:27:17;;;;;;;10.38;7.50;;;;;;;20.56;65.23;97999.38;4944432;28;20051;-60
2021/09/17 09:29:46;;;;;;;11.35;7.20;;;;;;;20.80;63.87;97991.25;4942322;29;20085;-60
2021/09/17 09:32:27;;;;;;;10.55;7.03;;;;;;;20.72;64.43;97988.41;4943132;29;20098;-61
2021/09/17 09:35:02;;;;;;;9.77;6.38;;;;;;;21.71;62.48;97988.91;4926345;29;20820;-60
2021/09/17 09:37:30;;;;;;;8.93;6.18;;;;;;;22.06;58.97;97991.13;4942080;29;20154;-60
2021/09/17 09:39:57;;;;;;;13.55;6.35;;;;;;;22.12;59.88;97987.91;4939037;28;20078;-61
2021/09/17 09:42:52;;;;;;;8.48;5.70;;;;;;;22.50;58.70;97983.69;4941779;28;20043;-60
2021/09/17 09:45:24;;;;;;;8.07;4.68;;;;;;;23.64;54.78;97975.00;4927442;29;20102;-62
2021/09/17 09:47:55;;;;;;;6.82;4.30;;;;;;;21.86;57.82;97978.75;4943585;29;20034;-61
2021/09/17 09:50:24;;;;;;;7.57;4.47;;;;;;;21.69;57.40;97973.13;4939044;28;20655;-60
2021/09/17 09:52:59;;;;;;;9.75;5.38;;;;;;;20.48;61.07;97975.34;4941864;28;20023;-60
2021/09/17 09:55:25;;;;;;;7.78;4.43;;;;;;;20.01;62.63;97973.75;4941527;29;20065;-61
2021/09/17 09:57:53;;;;;;;7.13;4.35;;;;;;;20.60;62.43;97967.25;4943506;29;20106;-60
2021/09/17 10:00:19;;;;;;;10.18;4.70;;;;;;;20.89;61.12;97969.28;4942366;28;20039;-61
2021/09/17 10:02:45;;;;;;;5.93;4.50;;;;;;;20.29;64.63;97965.41;4943564;29;20027;-59
2021/09/17 10:05:13;;;;;;;6.47;4.50;;;;;;;20.60;63.53;97969.91;4942056;29;20038;-60
2021/09/17 10:07:39;;;;;;;10.00;4.45;;;;;;;21.87;63.11;97964.50;4939340;28;20023;-61
2021/09/17 10:10:09;;;;;;;6.40;4.70;;;;;;;21.83;60.65;97971.88;4938730;28;20042;-61
2021/09/17 10:12:34;;;;;;;7.15;4.57;;;;;;;23.80;54.54;97958.41;4942175;28;20713;-62
2021/09/17 10:15:01;;;;;;;10.10;4.15;;;;;;;22.78;58.96;97962.56;4941876;29;20023;-59
2021/09/17 10:17:30;;;;;;;8.23;5.00;;;;;;;21.07;60.60;97955.47;4942534;29;20149;-63
2021/09/17 10:19:57;;;;;;;4.65;3.40;;;;;;;23.02;54.65;97956.78;4942019;28;21190;-60
2021/09/17 10:22:31;;;;;;;6.75;3.35;;;;;;;24.32;53.42;97950.69;4941931;29;20035;-61
2021/09/17 10:25:20;;;;;;;5.55;3.60;;;;;;;23.04;53.24;97956.69;4942320;29;20027;-61
2021/09/17 10:28:15;;;;;;;4.82;2.95;;;;;;;24.79;50.73;97945.16;4942064;29;20056;-61
2021/09/17 10:30:42;;;;;;;7.05;2.50;;;;;;;22.97;50.67;97943.06;4942249;28;20168;-62
2021/09/17 10:33:25;;;;;;;4.20;1.90;;;;;;;24.25;49.80;97944.28;4942500;29;20031;-60
2021/09/17 10:35:51;;;;;;;3.53;1.88;;;;;;;23.05;49.18;97929.94;4941739;29;20035;-60
2021/09/17 10:38:30;;;;;;;3.03;2.00;;;;;;;24.32;46.90;97924.03;4942655;29;20030;-62
2021/09/17 10:40:59;;;;;;;5.05;2.25;;;;;;;23.82;48.67;97929.81;4941129;28;20114;-62
2021/09/17 10:43:27;;;;;;;3.08;2.20;;;;;;;22.34;50.67;97935.56;4941466;29;20218;-60
2021/09/17 10:46:01;;;;;;;3.38;1.83;;;;;;;21.89;53.25;97936.00;4941492;29;20150;-60
2021/09/17 10:48:49;;;;;;;3.42;1.90;;;;;;;22.50;52.60;97935.84;4942739;29;20576;-61
2021/09/17 10:51:41;;;;;;;3.35;1.60;;;;;;;22.19;49.08;97936.91;4914846;28;20070;-62
2021/09/17 10:54:11;;;;;;;3.65;1.60;;;;;;;23.32;46.32;97930.13;4941795;28;20749;-62
2021/09/17 10:56:48;;;;;;;3.08;1.73;;;;;;;22.80;47.09;97934.00;4941543;29;20047;-62
2021/09/17 10:59:15;;;;;;;4.70;1.73;;;;;;;22.10;49.95;97927.94;4941786;29;20031;-59
2021/09/17 11:01:53;;;;;;;3.17;1.60;;;;;;;23.35;47.35;97929.84;4941423;28;20078;-61
2021/09/17 11:04:26;;;;;;;2.75;1.58;;;;;;;23.03;49.68;97925.69;4942809;29;20035;-60
2021/09/17 11:07:15;;;;;;;3.67;1.83;;;;;;;22.65;53.84;97922.97;4941732;29;20035;-61
2021/09/17 11:09:47;;;;;;;4.40;1.80;;;;;;;22.67;52.83;97934.28;4941830;28;20019;-60
2021/09/17 11:12:14;;;;;;;2.55;1.70;;;;;;;23.35;50.86;97924.53;4941336;29;20122;-61
2021/09/17 11:14:40;;;;;;;2.75;1.70;;;;;;;23.32;51.97;97924.81;4942037;29;20140;-61
2021/09/17 11:17:05;;;;;;;2.40;1.70;;;;;;;22.17;52.17;97922.94;4941642;29;20130;-60
2021/09/17 11:19:31;;;;;;;2.95;1.50;;;;;;;21.99;51.57;97920.94;4941424;28;20031;-61
2021/09/17 11:21:58;;;;;;;2.25;1.40;;;;;;;21.77;52.76;97922.00;4941275;29;20638;-63
2021/09/17 11:24:25;;;;;;;2.45;1.67;;;;;;;22.27;54.16;97914.00;4942395;29;21008;-60
2021/09/17 11:26:53;;;;;;;2.47;1.60;;;;;;;23.12;49.72;97919.53;4941574;29;20042;-60